sensor_id;sensor_type;location;lat;lon;timestamp;pressure;altitude;pressure_sealevel;temperature;humidity
77685;BME280;66844;46.092;18.268;2024-01-27T00:00:08;99859.78;;;6.29;79.25
77685;BME280;66844;46.092;18.268;2024-01-27T00:00:40;99859.50;;;6.37;78.46
77685;BME280;66844;46.092;18.268;2024-01-27T00:01:12;99862.91;;;6.41;77.88
77685;BME280;66844;46.092;18.268;2024-01-27T00:01:44;99861.25;;;6.38;77.85
77685;BME280;66844;46.092;18.268;2024-01-27T00:02:17;99862.16;;;6.37;78.79
77685;BME280;66844;46.092;18.268;2024-01-27T00:02:49;99864.00;;;6.35;78.89
77685;BME280;66844;46.092;18.268;2024-01-27T00:03:21;99867.50;;;6.36;78.96
77685;BME280;66844;46.092;18.268;2024-01-27T00:03:53;99864.97;;;6.32;78.65
77685;BME280;66844;46.092;18.268;2024-01-27T00:04:25;99873.72;;;6.33;78.62
77685;BME280;66844;46.092;18.268;2024-01-27T00:04:57;99871.97;;;6.33;79.12
77685;BME280;66844;46.092;18.268;2024-01-27T00:05:29;99880.91;;;6.29;79.06
77685;BME280;66844;46.092;18.268;2024-01-27T00:06:02;99887.16;;;6.27;79.77
77685;BME280;66844;46.092;18.268;2024-01-27T00:06:34;99899.41;;;6.29;80.20
77685;BME280;66844;46.092;18.268;2024-01-27T00:07:06;99903.31;;;6.18;80.06
77685;BME280;66844;46.092;18.268;2024-01-27T00:07:39;99920.03;;;6.18;80.15
77685;BME280;66844;46.092;18.268;2024-01-27T00:08:12;99973.63;;;6.22;79.74
77685;BME280;66844;46.092;18.268;2024-01-27T00:08:43;100034.47;;;6.19;80.15
77685;BME280;66844;46.092;18.268;2024-01-27T00:09:15;100058.25;;;6.19;79.71
77685;BME280;66844;46.092;18.268;2024-01-27T00:09:47;100036.97;;;6.25;80.28
77685;BME280;66844;46.092;18.268;2024-01-27T00:10:19;100058.41;;;6.42;78.70
77685;BME280;66844;46.092;18.268;2024-01-27T00:10:51;100053.16;;;6.68;77.47
77685;BME280;66844;46.092;18.268;2024-01-27T00:11:23;100052.66;;;6.83;77.02
77685;BME280;66844;46.092;18.268;2024-01-27T00:11:58;100076.06;;;6.96;76.52
77685;BME280;66844;46.092;18.268;2024-01-27T00:12:30;100067.19;;;6.97;77.05
77685;BME280;66844;46.092;18.268;2024-01-27T00:13:02;100084.81;;;6.96;78.16
77685;BME280;66844;46.092;18.268;2024-01-27T00:13:34;100074.41;;;6.92;79.53
77685;BME280;66844;46.092;18.268;2024-01-27T00:14:06;100086.00;;;6.88;81.33
77685;BME280;66844;46.092;18.268;2024-01-27T00:14:39;100097.88;;;6.74;82.12
77685;BME280;66844;46.092;18.268;2024-01-27T00:15:11;100094.78;;;6.62;84.01
77685;BME280;66844;46.092;18.268;2024-01-27T00:15:43;100098.69;;;6.50;85.52
77685;BME280;66844;46.092;18.268;2024-01-27T00:16:15;100075.28;;;6.38;87.70
77685;BME280;66844;46.092;18.268;2024-01-27T00:16:47;100078.41;;;6.23;87.90
77685;BME280;66844;46.092;18.268;2024-01-27T00:17:19;100080.47;;;6.13;90.32
77685;BME280;66844;46.092;18.268;2024-01-27T00:17:55;100074.47;;;6.07;89.98
77685;BME280;66844;46.092;18.268;2024-01-27T00:18:27;100078.81;;;6.09;90.62
77685;BME280;66844;46.092;18.268;2024-01-27T00:18:59;100076.34;;;6.03;90.69
77685;BME280;66844;46.092;18.268;2024-01-27T00:19:32;100059.88;;;5.95;91.25
77685;BME280;66844;46.092;18.268;2024-01-27T00:20:06;100042.59;;;5.83;92.22
77685;BME280;66844;46.092;18.268;2024-01-27T00:20:38;100072.72;;;5.76;93.23
77685;BME280;66844;46.092;18.268;2024-01-27T00:21:10;100061.53;;;5.68;93.00
77685;BME280;66844;46.092;18.268;2024-01-27T00:21:42;100065.03;;;5.69;93.33
77685;BME280;66844;46.092;18.268;2024-01-27T00:22:14;100058.13;;;5.63;94.64
77685;BME280;66844;46.092;18.268;2024-01-27T00:22:46;100068.78;;;5.60;94.89
77685;BME280;66844;46.092;18.268;2024-01-27T00:23:18;100050.31;;;5.60;95.41
77685;BME280;66844;46.092;18.268;2024-01-27T00:23:50;100058.31;;;5.57;96.08
77685;BME280;66844;46.092;18.268;2024-01-27T00:24:22;100054.91;;;5.54;96.40
77685;BME280;66844;46.092;18.268;2024-01-27T00:24:54;100053.06;;;5.56;97.30
77685;BME280;66844;46.092;18.268;2024-01-27T00:25:26;100050.50;;;5.54;98.04
77685;BME280;66844;46.092;18.268;2024-01-27T00:25:58;100040.09;;;5.48;98.02
77685;BME280;66844;46.092;18.268;2024-01-27T00:26:30;100033.06;;;5.49;98.26
77685;BME280;66844;46.092;18.268;2024-01-27T00:27:03;100026.97;;;5.47;98.60
77685;BME280;66844;46.092;18.268;2024-01-27T00:27:35;100031.47;;;5.43;99.88
77685;BME280;66844;46.092;18.268;2024-01-27T00:28:08;100025.25;;;5.44;99.94
77685;BME280;66844;46.092;18.268;2024-01-27T00:28:39;100022.78;;;5.40;99.78
77685;BME280;66844;46.092;18.268;2024-01-27T00:29:11;100018.44;;;5.37;99.96
77685;BME280;66844;46.092;18.268;2024-01-27T00:29:43;100031.63;;;5.37;100.00
77685;BME280;66844;46.092;18.268;2024-01-27T00:30:15;100025.56;;;5.33;100.00
77685;BME280;66844;46.092;18.268;2024-01-27T00:30:47;100029.09;;;5.32;100.00
77685;BME280;66844;46.092;18.268;2024-01-27T00:31:19;100025.63;;;5.32;100.00
77685;BME280;66844;46.092;18.268;2024-01-27T00:31:51;100024.69;;;5.33;100.00
77685;BME280;66844;46.092;18.268;2024-01-27T00:32:26;100020.38;;;5.30;100.00
77685;BME280;66844;46.092;18.268;2024-01-27T00:32:58;100009.91;;;5.27;100.00
77685;BME280;66844;46.092;18.268;2024-01-27T00:33:30;100012.38;;;5.33;100.00
77685;BME280;66844;46.092;18.268;2024-01-27T00:34:02;100014.91;;;5.36;100.00
77685;BME280;66844;46.092;18.268;2024-01-27T00:34:34;100015.78;;;5.37;100.00
77685;BME280;66844;46.092;18.268;2024-01-27T00:35:07;99996.44;;;5.36;100.00
77685;BME280;66844;46.092;18.268;2024-01-27T00:35:40;100003.47;;;5.37;100.00
77685;BME280;66844;46.092;18.268;2024-01-27T00:36:12;99995.44;;;5.42;100.00
77685;BME280;66844;46.092;18.268;2024-01-27T00:36:44;100014.78;;;5.41;99.87
77685;BME280;66844;46.092;18.268;2024-01-27T00:37:20;100000.69;;;5.42;100.00
77685;BME280;66844;46.092;18.268;2024-01-27T00:37:52;100007.75;;;5.42;98.97
77685;BME280;66844;46.092;18.268;2024-01-27T00:38:24;100000.63;;;5.45;98.86
77685;BME280;66844;46.092;18.268;2024-01-27T00:38:56;100005.00;;;5.46;99.11
77685;BME280;66844;46.092;18.268;2024-01-27T00:39:28;99983.00;;;5.46;98.42
77685;BME280;66844;46.092;18.268;2024-01-27T00:40:01;100010.19;;;5.48;97.54
77685;BME280;66844;46.092;18.268;2024-01-27T00:40:33;99978.53;;;5.48;97.85
77685;BME280;66844;46.092;18.268;2024-01-27T00:41:05;100011.13;;;5.47;98.22
77685;BME280;66844;46.092;18.268;2024-01-27T00:41:37;99983.81;;;5.48;98.07
77685;BME280;66844;46.092;18.268;2024-01-27T00:42:09;100003.94;;;5.52;97.66
77685;BME280;66844;46.092;18.268;2024-01-27T00:42:41;100011.97;;;5.47;98.08
77685;BME280;66844;46.092;18.268;2024-01-27T00:43:13;100014.56;;;5.49;98.87
77685;BME280;66844;46.092;18.268;2024-01-27T00:43:45;100006.56;;;5.52;98.57
77685;BME280;66844;46.092;18.268;2024-01-27T00:44:17;100018.88;;;5.53;97.84
77685;BME280;66844;46.092;18.268;2024-01-27T00:44:50;100028.53;;;5.52;97.98
77685;BME280;66844;46.092;18.268;2024-01-27T00:45:22;100015.31;;;5.54;98.19
77685;BME280;66844;46.092;18.268;2024-01-27T00:45:54;100008.31;;;5.53;97.87
77685;BME280;66844;46.092;18.268;2024-01-27T00:46:26;100005.63;;;5.54;97.32
77685;BME280;66844;46.092;18.268;2024-01-27T00:46:58;100026.56;;;5.60;97.42
77685;BME280;66844;46.092;18.268;2024-01-27T00:47:30;100011.63;;;5.59;98.15
77685;BME280;66844;46.092;18.268;2024-01-27T00:48:02;100008.13;;;5.59;97.93
77685;BME280;66844;46.092;18.268;2024-01-27T00:48:35;100021.19;;;5.63;97.56
77685;BME280;66844;46.092;18.268;2024-01-27T00:49:07;100015.78;;;5.68;96.51
77685;BME280;66844;46.092;18.268;2024-01-27T00:49:39;100009.53;;;5.70;96.44
77685;BME280;66844;46.092;18.268;2024-01-27T00:50:11;100010.38;;;5.72;97.05
77685;BME280;66844;46.092;18.268;2024-01-27T00:50:43;100000.72;;;5.71;96.33
77685;BME280;66844;46.092;18.268;2024-01-27T00:51:15;99999.75;;;5.74;96.02
77685;BME280;66844;46.092;18.268;2024-01-27T00:51:47;100002.38;;;5.74;96.20
77685;BME280;66844;46.092;18.268;2024-01-27T00:52:19;100018.13;;;5.77;96.46
77685;BME280;66844;46.092;18.268;2024-01-27T00:52:51;99997.94;;;5.76;96.51
77685;BME280;66844;46.092;18.268;2024-01-27T00:53:26;100008.44;;;5.77;95.69
77685;BME280;66844;46.092;18.268;2024-01-27T00:53:58;100002.25;;;5.78;95.83
77685;BME280;66844;46.092;18.268;2024-01-27T00:54:30;100023.41;;;5.77;95.85
77685;BME280;66844;46.092;18.268;2024-01-27T00:55:02;100028.69;;;5.77;96.61
77685;BME280;66844;46.092;18.268;2024-01-27T00:55:35;100017.28;;;5.76;95.95
77685;BME280;66844;46.092;18.268;2024-01-27T00:56:06;100024.28;;;5.77;97.06
77685;BME280;66844;46.092;18.268;2024-01-27T00:56:38;100001.44;;;5.76;96.44
77685;BME280;66844;46.092;18.268;2024-01-27T00:57:10;100008.53;;;5.74;96.49
77685;BME280;66844;46.092;18.268;2024-01-27T00:57:42;100010.41;;;5.71;96.81
77685;BME280;66844;46.092;18.268;2024-01-27T00:58:14;100011.28;;;5.71;96.51
77685;BME280;66844;46.092;18.268;2024-01-27T00:58:46;100012.06;;;5.73;96.42
77685;BME280;66844;46.092;18.268;2024-01-27T00:59:18;100009.41;;;5.75;96.16
77685;BME280;66844;46.092;18.268;2024-01-27T00:59:50;100011.19;;;5.74;96.56
77685;BME280;66844;46.092;18.268;2024-01-27T01:00:22;99998.75;;;5.78;96.66
77685;BME280;66844;46.092;18.268;2024-01-27T01:00:54;100019.00;;;5.77;96.65
77685;BME280;66844;46.092;18.268;2024-01-27T01:01:26;100019.97;;;5.75;97.35
77685;BME280;66844;46.092;18.268;2024-01-27T01:01:58;100014.69;;;5.75;97.42
77685;BME280;66844;46.092;18.268;2024-01-27T01:02:30;100023.47;;;5.75;97.58
77685;BME280;66844;46.092;18.268;2024-01-27T01:03:02;100031.50;;;5.72;97.66
77685;BME280;66844;46.092;18.268;2024-01-27T01:03:34;100023.47;;;5.75;96.65
77685;BME280;66844;46.092;18.268;2024-01-27T01:04:07;100015.56;;;5.75;97.01
77685;BME280;66844;46.092;18.268;2024-01-27T01:04:39;100023.41;;;5.77;97.19
77685;BME280;66844;46.092;18.268;2024-01-27T01:05:11;100023.41;;;5.77;97.33
77685;BME280;66844;46.092;18.268;2024-01-27T01:05:44;100020.75;;;5.78;96.49
77685;BME280;66844;46.092;18.268;2024-01-27T01:06:16;100004.88;;;5.80;96.02
77685;BME280;66844;46.092;18.268;2024-01-27T01:06:48;100017.09;;;5.82;96.14
77685;BME280;66844;46.092;18.268;2024-01-27T01:07:20;100022.47;;;5.79;96.33
77685;BME280;66844;46.092;18.268;2024-01-27T01:07:52;100014.59;;;5.78;97.13
77685;BME280;66844;46.092;18.268;2024-01-27T01:08:24;100020.78;;;5.77;97.09
77685;BME280;66844;46.092;18.268;2024-01-27T01:08:55;100009.28;;;5.79;96.46
77685;BME280;66844;46.092;18.268;2024-01-27T01:09:27;99993.47;;;5.78;96.80
77685;BME280;66844;46.092;18.268;2024-01-27T01:10:00;100020.75;;;5.78;97.17
77685;BME280;66844;46.092;18.268;2024-01-27T01:10:32;99996.16;;;5.76;97.39
77685;BME280;66844;46.092;18.268;2024-01-27T01:11:04;99993.56;;;5.75;97.21
77685;BME280;66844;46.092;18.268;2024-01-27T01:11:36;100004.91;;;5.78;96.07
77685;BME280;66844;46.092;18.268;2024-01-27T01:12:11;100004.94;;;5.77;96.69
77685;BME280;66844;46.092;18.268;2024-01-27T01:12:43;99982.91;;;5.78;97.28
77685;BME280;66844;46.092;18.268;2024-01-27T01:13:15;99992.66;;;5.76;96.68
77685;BME280;66844;46.092;18.268;2024-01-27T01:13:47;99986.41;;;5.78;96.36
77685;BME280;66844;46.092;18.268;2024-01-27T01:14:19;100000.44;;;5.80;96.27
77685;BME280;66844;46.092;18.268;2024-01-27T01:14:52;100001.34;;;5.79;97.14
77685;BME280;66844;46.092;18.268;2024-01-27T01:15:24;99994.34;;;5.78;96.46
77685;BME280;66844;46.092;18.268;2024-01-27T01:15:56;99995.22;;;5.79;96.07
77685;BME280;66844;46.092;18.268;2024-01-27T01:16:28;100003.13;;;5.79;96.13
77685;BME280;66844;46.092;18.268;2024-01-27T01:17:00;99993.44;;;5.79;96.78
77685;BME280;66844;46.092;18.268;2024-01-27T01:17:32;99986.31;;;5.81;95.14
77685;BME280;66844;46.092;18.268;2024-01-27T01:18:04;99995.97;;;5.82;96.18
77685;BME280;66844;46.092;18.268;2024-01-27T01:18:36;99990.69;;;5.82;95.91
77685;BME280;66844;46.092;18.268;2024-01-27T01:19:08;99998.63;;;5.82;95.78
77685;BME280;66844;46.092;18.268;2024-01-27T01:19:41;99984.44;;;5.87;95.01
77685;BME280;66844;46.092;18.268;2024-01-27T01:20:13;99998.41;;;5.90;93.85
77685;BME280;66844;46.092;18.268;2024-01-27T01:20:45;100003.59;;;5.93;94.05
77685;BME280;66844;46.092;18.268;2024-01-27T01:21:17;99991.31;;;5.92;93.83
77685;BME280;66844;46.092;18.268;2024-01-27T01:21:49;99997.56;;;5.90;94.32
77685;BME280;66844;46.092;18.268;2024-01-27T01:22:21;99994.09;;;5.88;95.13
77685;BME280;66844;46.092;18.268;2024-01-27T01:22:53;100002.03;;;5.88;95.53
77685;BME280;66844;46.092;18.268;2024-01-27T01:23:25;99996.75;;;5.88;94.73
77685;BME280;66844;46.092;18.268;2024-01-27T01:23:57;99995.00;;;5.87;94.57
77685;BME280;66844;46.092;18.268;2024-01-27T01:24:29;99983.53;;;5.88;93.99
77685;BME280;66844;46.092;18.268;2024-01-27T01:25:01;99996.75;;;5.88;93.61
77685;BME280;66844;46.092;18.268;2024-01-27T01:25:33;100002.81;;;5.90;94.04
77685;BME280;66844;46.092;18.268;2024-01-27T01:26:05;99996.69;;;5.89;93.67
77685;BME280;66844;46.092;18.268;2024-01-27T01:26:37;100010.78;;;5.88;93.93
77685;BME280;66844;46.092;18.268;2024-01-27T01:27:09;100010.78;;;5.88;94.14
77685;BME280;66844;46.092;18.268;2024-01-27T01:27:41;100023.19;;;5.86;94.12
77685;BME280;66844;46.092;18.268;2024-01-27T01:28:13;100011.72;;;5.87;94.56
77685;BME280;66844;46.092;18.268;2024-01-27T01:28:45;100009.06;;;5.85;94.39
77685;BME280;66844;46.092;18.268;2024-01-27T01:29:17;100012.69;;;5.83;94.49
77685;BME280;66844;46.092;18.268;2024-01-27T01:29:49;99998.63;;;5.82;94.86
77685;BME280;66844;46.092;18.268;2024-01-27T01:30:21;99995.09;;;5.82;93.65
77685;BME280;66844;46.092;18.268;2024-01-27T01:30:53;99995.16;;;5.80;93.87
77685;BME280;66844;46.092;18.268;2024-01-27T01:31:25;100000.28;;;5.85;93.56
77685;BME280;66844;46.092;18.268;2024-01-27T01:31:58;100003.00;;;5.83;93.64
77685;BME280;66844;46.092;18.268;2024-01-27T01:32:30;99995.09;;;5.82;93.98
77685;BME280;66844;46.092;18.268;2024-01-27T01:33:02;99973.19;;;5.80;93.45
77685;BME280;66844;46.092;18.268;2024-01-27T01:33:34;99982.81;;;5.81;93.64
77685;BME280;66844;46.092;18.268;2024-01-27T01:34:06;99971.34;;;5.82;92.74
77685;BME280;66844;46.092;18.268;2024-01-27T01:34:38;99983.66;;;5.83;91.89
77685;BME280;66844;46.092;18.268;2024-01-27T01:35:10;99985.25;;;5.89;90.74
77685;BME280;66844;46.092;18.268;2024-01-27T01:35:42;99984.38;;;5.88;90.63
77685;BME280;66844;46.092;18.268;2024-01-27T01:36:15;99983.53;;;5.88;91.18
77685;BME280;66844;46.092;18.268;2024-01-27T01:36:46;99972.03;;;5.89;90.78
77685;BME280;66844;46.092;18.268;2024-01-27T01:37:19;99979.09;;;5.88;90.03
77685;BME280;66844;46.092;18.268;2024-01-27T01:37:51;99986.09;;;5.91;90.10
77685;BME280;66844;46.092;18.268;2024-01-27T01:38:23;99978.19;;;5.89;90.40
77685;BME280;66844;46.092;18.268;2024-01-27T01:38:55;99972.13;;;5.85;91.82
77685;BME280;66844;46.092;18.268;2024-01-27T01:39:27;99974.81;;;5.84;91.90
77685;BME280;66844;46.092;18.268;2024-01-27T01:39:59;99981.97;;;5.80;91.14
77685;BME280;66844;46.092;18.268;2024-01-27T01:40:31;99980.13;;;5.82;91.02
77685;BME280;66844;46.092;18.268;2024-01-27T01:41:03;99991.56;;;5.83;90.33
77685;BME280;66844;46.092;18.268;2024-01-27T01:41:35;99977.41;;;5.85;89.70
77685;BME280;66844;46.092;18.268;2024-01-27T01:42:07;99992.38;;;5.87;89.28
77685;BME280;66844;46.092;18.268;2024-01-27T01:42:39;99978.19;;;5.89;89.33
77685;BME280;66844;46.092;18.268;2024-01-27T01:43:11;99978.19;;;5.89;88.93
77685;BME280;66844;46.092;18.268;2024-01-27T01:43:43;99979.09;;;5.88;89.16
77685;BME280;66844;46.092;18.268;2024-01-27T01:44:15;99989.72;;;5.87;89.29
77685;BME280;66844;46.092;18.268;2024-01-27T01:44:47;99985.31;;;5.87;88.58
77685;BME280;66844;46.092;18.268;2024-01-27T01:45:19;99985.97;;;5.94;87.54
77685;BME280;66844;46.092;18.268;2024-01-27T01:45:52;99985.97;;;5.94;87.27
77685;BME280;66844;46.092;18.268;2024-01-27T01:46:27;99991.31;;;5.92;87.79
77685;BME280;66844;46.092;18.268;2024-01-27T01:46:59;99998.38;;;5.92;87.12
77685;BME280;66844;46.092;18.268;2024-01-27T01:47:31;99993.91;;;5.94;86.59
77685;BME280;66844;46.092;18.268;2024-01-27T01:48:04;100003.56;;;5.95;85.44
77685;BME280;66844;46.092;18.268;2024-01-27T01:48:37;100005.28;;;5.96;85.93
77685;BME280;66844;46.092;18.268;2024-01-27T01:49:09;99993.91;;;5.94;86.33
77685;BME280;66844;46.092;18.268;2024-01-27T01:49:42;99991.13;;;5.98;84.45
77685;BME280;66844;46.092;18.268;2024-01-27T01:50:14;99995.56;;;5.96;84.44
77685;BME280;66844;46.092;18.268;2024-01-27T01:50:46;99991.25;;;5.94;85.57
77685;BME280;66844;46.092;18.268;2024-01-27T01:51:18;100009.75;;;5.94;85.61
77685;BME280;66844;46.092;18.268;2024-01-27T01:51:50;100017.53;;;5.98;83.69
77685;BME280;66844;46.092;18.268;2024-01-27T01:52:22;100020.09;;;6.01;82.95
77685;BME280;66844;46.092;18.268;2024-01-27T01:52:54;100008.41;;;6.08;81.61
77685;BME280;66844;46.092;18.268;2024-01-27T01:53:28;100008.38;;;6.10;81.60
77685;BME280;66844;46.092;18.268;2024-01-27T01:54:01;100014.69;;;6.04;82.85
77685;BME280;66844;46.092;18.268;2024-01-27T01:54:34;100013.72;;;6.07;82.84
77685;BME280;66844;46.092;18.268;2024-01-27T01:55:06;100032.22;;;6.07;81.55
77685;BME280;66844;46.092;18.268;2024-01-27T01:55:39;100026.88;;;6.10;80.68
77685;BME280;66844;46.092;18.268;2024-01-27T01:56:14;100026.09;;;6.06;81.20
77685;BME280;66844;46.092;18.268;2024-01-27T01:56:47;100018.06;;;6.09;80.98
77685;BME280;66844;46.092;18.268;2024-01-27T01:57:19;100015.38;;;6.11;80.47
77685;BME280;66844;46.092;18.268;2024-01-27T01:57:51;100032.94;;;6.12;80.73
77685;BME280;66844;46.092;18.268;2024-01-27T01:58:25;99997.88;;;6.07;80.60
77685;BME280;66844;46.092;18.268;2024-01-27T01:58:56;100027.88;;;6.06;80.69
77685;BME280;66844;46.092;18.268;2024-01-27T01:59:29;100013.72;;;6.07;79.62
77685;BME280;66844;46.092;18.268;2024-01-27T02:00:01;100026.94;;;6.07;80.41
77685;BME280;66844;46.092;18.268;2024-01-27T02:00:33;100024.28;;;6.07;79.49
77685;BME280;66844;46.092;18.268;2024-01-27T02:01:05;100021.59;;;6.10;78.86
77685;BME280;66844;46.092;18.268;2024-01-27T02:01:37;100030.41;;;6.09;79.16
77685;BME280;66844;46.092;18.268;2024-01-27T02:02:11;100020.66;;;6.11;78.01
77685;BME280;66844;46.092;18.268;2024-01-27T02:02:44;100019.72;;;6.13;77.85
77685;BME280;66844;46.092;18.268;2024-01-27T02:03:17;100030.19;;;6.16;77.24
77685;BME280;66844;46.092;18.268;2024-01-27T02:03:56;100025.75;;;6.17;77.11
77685;BME280;66844;46.092;18.268;2024-01-27T02:04:28;100013.31;;;6.20;76.29
77685;BME280;66844;46.092;18.268;2024-01-27T02:05:00;100019.41;;;6.22;76.03
77685;BME280;66844;46.092;18.268;2024-01-27T02:05:33;100028.25;;;6.21;76.18
77685;BME280;66844;46.092;18.268;2024-01-27T02:06:06;100042.38;;;6.20;76.02
77685;BME280;66844;46.092;18.268;2024-01-27T02:06:38;100031.75;;;6.22;75.78
77685;BME280;66844;46.092;18.268;2024-01-27T02:07:10;100034.34;;;6.23;75.16
77685;BME280;66844;46.092;18.268;2024-01-27T02:07:42;100043.19;;;6.22;75.01
77685;BME280;66844;46.092;18.268;2024-01-27T02:08:14;100018.50;;;6.23;74.76
77685;BME280;66844;46.092;18.268;2024-01-27T02:08:47;100032.50;;;6.25;73.91
77685;BME280;66844;46.092;18.268;2024-01-27T02:09:19;100042.06;;;6.29;73.94
77685;BME280;66844;46.092;18.268;2024-01-27T02:09:51;100037.75;;;6.27;74.68
77685;BME280;66844;46.092;18.268;2024-01-27T02:10:23;100018.28;;;6.29;73.16
77685;BME280;66844;46.092;18.268;2024-01-27T02:10:55;100034.09;;;6.31;72.83
77685;BME280;66844;46.092;18.268;2024-01-27T02:11:27;100035.88;;;6.30;73.34
77685;BME280;66844;46.092;18.268;2024-01-27T02:11:59;100031.56;;;6.28;73.88
77685;BME280;66844;46.092;18.268;2024-01-27T02:12:31;100027.28;;;6.24;73.58
77685;BME280;66844;46.092;18.268;2024-01-27T02:13:23;100045.53;;;6.31;72.88
77685;BME280;66844;46.092;18.268;2024-01-27T02:13:55;100034.00;;;6.34;72.28
77685;BME280;66844;46.092;18.268;2024-01-27T02:14:27;100035.75;;;6.35;72.23
77685;BME280;66844;46.092;18.268;2024-01-27T02:14:59;100027.84;;;6.33;72.66
77685;BME280;66844;46.092;18.268;2024-01-27T02:15:31;100018.25;;;6.31;72.19
77685;BME280;66844;46.092;18.268;2024-01-27T02:16:03;100049.06;;;6.32;71.37
77685;BME280;66844;46.092;18.268;2024-01-27T02:16:35;100038.44;;;6.33;71.91
77685;BME280;66844;46.092;18.268;2024-01-27T02:17:07;100032.34;;;6.31;71.24
77685;BME280;66844;46.092;18.268;2024-01-27T02:17:40;100042.81;;;6.34;70.52
77685;BME280;66844;46.092;18.268;2024-01-27T02:18:13;100042.69;;;6.38;70.30
77685;BME280;66844;46.092;18.268;2024-01-27T02:18:45;100018.88;;;6.39;70.66
77685;BME280;66844;46.092;18.268;2024-01-27T02:19:17;100022.28;;;6.43;70.25
77685;BME280;66844;46.092;18.268;2024-01-27T02:19:49;100015.25;;;6.42;69.29
77685;BME280;66844;46.092;18.268;2024-01-27T02:20:21;100020.63;;;6.40;69.83
77685;BME280;66844;46.092;18.268;2024-01-27T02:20:53;99974.97;;;6.35;70.33
77685;BME280;66844;46.092;18.268;2024-01-27T02:21:25;100039.19;;;6.37;70.31
77685;BME280;66844;46.092;18.268;2024-01-27T02:21:57;100036.53;;;6.37;69.56
77685;BME280;66844;46.092;18.268;2024-01-27T02:22:29;100010.94;;;6.39;69.21
77685;BME280;66844;46.092;18.268;2024-01-27T02:23:01;100015.25;;;6.42;68.52
77685;BME280;66844;46.092;18.268;2024-01-27T02:23:36;100000.13;;;6.47;67.82
77685;BME280;66844;46.092;18.268;2024-01-27T02:24:08;100027.44;;;6.47;67.76
77685;BME280;66844;46.092;18.268;2024-01-27T02:24:41;100050.38;;;6.45;68.67
77685;BME280;66844;46.092;18.268;2024-01-27T02:25:13;100040.69;;;6.46;68.19
77685;BME280;66844;46.092;18.268;2024-01-27T02:25:45;100045.97;;;6.46;67.63
77685;BME280;66844;46.092;18.268;2024-01-27T02:26:17;100035.44;;;6.44;68.13
77685;BME280;66844;46.092;18.268;2024-01-27T02:26:49;100031.94;;;6.44;68.04
77685;BME280;66844;46.092;18.268;2024-01-27T02:27:20;100031.75;;;6.50;67.89
77685;BME280;66844;46.092;18.268;2024-01-27T02:27:52;100049.41;;;6.48;68.39
77685;BME280;66844;46.092;18.268;2024-01-27T02:28:24;100045.16;;;6.44;67.73
77685;BME280;66844;46.092;18.268;2024-01-27T02:28:57;100039.88;;;6.44;67.50
77685;BME280;66844;46.092;18.268;2024-01-27T02:29:28;100035.41;;;6.46;67.08
77685;BME280;66844;46.092;18.268;2024-01-27T02:30:00;100032.75;;;6.46;67.68
77685;BME280;66844;46.092;18.268;2024-01-27T02:30:33;100044.19;;;6.46;67.32
77685;BME280;66844;46.092;18.268;2024-01-27T02:31:05;100032.78;;;6.44;67.75
77685;BME280;66844;46.092;18.268;2024-01-27T02:31:37;100040.78;;;6.43;67.95
77685;BME280;66844;46.092;18.268;2024-01-27T02:32:09;100029.38;;;6.41;67.82
77685;BME280;66844;46.092;18.268;2024-01-27T02:32:41;100048.75;;;6.41;68.16
77685;BME280;66844;46.092;18.268;2024-01-27T02:33:13;100025.03;;;6.40;67.81
77685;BME280;66844;46.092;18.268;2024-01-27T02:33:46;100032.03;;;6.41;67.60
77685;BME280;66844;46.092;18.268;2024-01-27T02:34:18;100019.66;;;6.43;66.97
77685;BME280;66844;46.092;18.268;2024-01-27T02:34:50;100034.63;;;6.42;67.66
77685;BME280;66844;46.092;18.268;2024-01-27T02:35:22;100014.50;;;6.38;67.26
77685;BME280;66844;46.092;18.268;2024-01-27T02:35:54;100021.53;;;6.39;67.93
77685;BME280;66844;46.092;18.268;2024-01-27T02:36:26;100042.56;;;6.42;67.30
77685;BME280;66844;46.092;18.268;2024-01-27T02:36:58;100037.38;;;6.39;67.39
77685;BME280;66844;46.092;18.268;2024-01-27T02:37:30;100014.47;;;6.40;67.03
77685;BME280;66844;46.092;18.268;2024-01-27T02:38:03;100038.25;;;6.40;67.17
77685;BME280;66844;46.092;18.268;2024-01-27T02:38:34;100033.03;;;6.37;67.53
77685;BME280;66844;46.092;18.268;2024-01-27T02:39:07;100051.53;;;6.37;67.68
77685;BME280;66844;46.092;18.268;2024-01-27T02:39:38;100045.41;;;6.36;68.22
77685;BME280;66844;46.092;18.268;2024-01-27T02:40:11;100048.97;;;6.35;68.30
77685;BME280;66844;46.092;18.268;2024-01-27T02:40:43;100049.94;;;6.32;68.24
77685;BME280;66844;46.092;18.268;2024-01-27T02:41:15;100067.56;;;6.32;67.72
77685;BME280;66844;46.092;18.268;2024-01-27T02:41:47;100069.31;;;6.31;68.14
77685;BME280;66844;46.092;18.268;2024-01-27T02:42:19;100055.25;;;6.31;68.70
77685;BME280;66844;46.092;18.268;2024-01-27T02:42:51;100061.53;;;6.27;69.40
77685;BME280;66844;46.092;18.268;2024-01-27T02:43:23;100061.56;;;6.25;68.46
77685;BME280;66844;46.092;18.268;2024-01-27T02:43:55;100065.91;;;6.28;69.05
77685;BME280;66844;46.092;18.268;2024-01-27T02:44:27;100063.38;;;6.25;68.36
77685;BME280;66844;46.092;18.268;2024-01-27T02:44:59;100058.91;;;6.27;68.03
77685;BME280;66844;46.092;18.268;2024-01-27T02:45:31;100080.88;;;6.29;68.06
77685;BME280;66844;46.092;18.268;2024-01-27T02:46:09;100071.25;;;6.26;68.67
77685;BME280;66844;46.092;18.268;2024-01-27T02:46:42;100059.00;;;6.24;68.58
77685;BME280;66844;46.092;18.268;2024-01-27T02:47:15;100071.19;;;6.28;68.29
77685;BME280;66844;46.092;18.268;2024-01-27T02:47:47;100067.78;;;6.24;68.57
77685;BME280;66844;46.092;18.268;2024-01-27T02:48:19;100075.72;;;6.24;68.30
77685;BME280;66844;46.092;18.268;2024-01-27T02:48:51;100083.56;;;6.26;68.48
77685;BME280;66844;46.092;18.268;2024-01-27T02:49:24;100085.44;;;6.22;69.17